Hauptseite
METAR-TAF:

METAR-TAF

Flughäfen :

Sion, Schweiz

Flughafen Sion

Breite: 46-13N, Länge: 007-20E, Höhe: 482 m

Beobachtung

Neuester Wetterbericht von vor 18 Minuten, um 01:20 UTC
Wind 5 kt aus Ost/Nordost
Temperatur 8°C
Luftfeuchtigkeit 66%
Luftdruck 1014 hPa
Sichtweite 10 km oder mehr
Durchbrochene Bewölkung in der Höhe von 9000 ft

METAR: LSGS 250120Z AUTO 06005KT 9999 BKN090 08/02 Q1014

Zeit: 02:38 (01:38 UTC)

Prognose

Neuester Wetterbericht von vor 11 Stunden und 13 Minuten, um 14:25 UTC
Gültige Prognose vom 24 um 15 UTC bis 24 um 24 UTC
Wind 5 kt aus Ost/Nordost
Sichtweite 10 km oder mehr
Durchbrochene Bewölkung in der Höhe von 10000 ft

TAF: LSGS 241425Z 2415/2424 07005KT 9999 BKN100

Wetterbeobachtungen und Prognosen von mehr als 4000 Flughäfen (METAR und TAF Bericht).

Die verfügbaren Stationen werden durch gelbe und rote Markierungen auf der Karte dargestellt.

Führen Sie die Maus auf sie, um den Namen der Station zu sehen.

Darauf klicken, um die Beobachtung von Wetterbeobachtungen und Prognosen zu sehen.

Um die Karte zu ändern : klicken Sie auf den grünen Tasten mit einem schwarzen Kreuz Zum Vergrößern, auf den grünen Button mit einem Gedankenstrich zu verkleinern, oder auf die grünen Pfeile für benachbarte Karten.


METAR-TAF: